createdAt,value
2022-11-30T00:00:24.548Z,18.50
2022-11-30T00:01:24.764Z,18.40
2022-11-30T00:02:24.595Z,17.70
2022-11-30T00:03:24.601Z,17.50
2022-11-30T00:04:24.472Z,18.00
2022-11-30T00:05:24.506Z,17.40
2022-11-30T00:06:24.480Z,18.50
2022-11-30T00:07:24.743Z,17.40
2022-11-30T00:08:24.424Z,18.30
2022-11-30T00:09:24.454Z,18.10
2022-11-30T00:10:24.679Z,17.80
2022-11-30T00:11:24.430Z,17.70
2022-11-30T00:12:24.377Z,18.00
2022-11-30T00:13:24.410Z,18.50
2022-11-30T00:14:24.355Z,17.00
2022-11-30T00:15:24.665Z,18.70
2022-11-30T00:16:24.416Z,18.10
2022-11-30T00:17:24.338Z,18.50
2022-11-30T00:18:24.316Z,18.90
2022-11-30T00:19:24.338Z,18.60
2022-11-30T00:20:24.522Z,16.60
2022-11-30T00:21:24.332Z,17.30
2022-11-30T00:22:24.300Z,17.50
2022-11-30T00:23:24.265Z,17.90
2022-11-30T00:24:24.262Z,18.00
2022-11-30T00:25:24.246Z,17.90
2022-11-30T00:26:24.322Z,18.50
2022-11-30T00:27:24.219Z,16.90
2022-11-30T00:28:24.416Z,18.30
2022-11-30T00:29:24.187Z,18.00
2022-11-30T00:30:24.197Z,18.40
2022-11-30T00:31:24.227Z,18.20
2022-11-30T00:32:24.147Z,19.30
2022-11-30T00:33:24.175Z,19.70
2022-11-30T00:34:24.288Z,17.80
2022-11-30T00:35:24.155Z,18.80
2022-11-30T00:36:24.099Z,18.20
2022-11-30T00:37:24.098Z,18.20
2022-11-30T00:38:24.080Z,17.20
2022-11-30T00:39:24.081Z,17.80
2022-11-30T00:40:24.358Z,20.00
2022-11-30T00:41:24.061Z,19.00
2022-11-30T00:42:24.060Z,18.60
2022-11-30T00:43:24.326Z,19.50
2022-11-30T00:44:24.027Z,20.50
2022-11-30T00:45:24.009Z,18.00
2022-11-30T00:46:24.098Z,18.30
2022-11-30T00:47:24.207Z,20.50
2022-11-30T00:48:23.970Z,18.80
2022-11-30T00:49:23.989Z,19.90
2022-11-30T00:50:23.931Z,18.50
2022-11-30T00:51:23.939Z,18.50
2022-11-30T00:52:23.911Z,18.10
2022-11-30T00:53:24.148Z,19.80
2022-11-30T00:54:23.894Z,19.20
2022-11-30T00:55:23.918Z,18.80
2022-11-30T00:56:25.034Z,19.80
2022-11-30T00:57:23.890Z,19.90
2022-11-30T00:58:23.871Z,20.40
2022-11-30T00:59:24.154Z,20.10
2022-11-30T01:00:23.852Z,18.90
2022-11-30T01:01:23.866Z,18.60
2022-11-30T01:02:24.203Z,18.10
2022-11-30T01:03:23.824Z,18.70
2022-11-30T01:04:23.773Z,18.50
2022-11-30T01:05:23.774Z,18.60
2022-11-30T01:06:23.771Z,17.80
2022-11-30T01:07:23.806Z,17.10
2022-11-30T01:08:23.753Z,18.50
2022-11-30T01:09:24.050Z,18.00
2022-11-30T01:10:23.729Z,17.90
2022-11-30T01:11:23.731Z,17.40
2022-11-30T01:12:23.921Z,17.50
2022-11-30T01:13:23.676Z,17.90
2022-11-30T01:14:23.655Z,17.10
2022-11-30T01:15:23.688Z,19.00
2022-11-30T01:16:23.684Z,18.20
2022-11-30T01:17:23.626Z,18.50
2022-11-30T01:18:23.606Z,18.40
2022-11-30T01:19:23.644Z,17.70
2022-11-30T01:20:23.613Z,18.10
2022-11-30T01:21:23.633Z,17.50
2022-11-30T01:22:23.585Z,17.00
2022-11-30T01:23:23.584Z,16.50
2022-11-30T01:24:23.564Z,17.80
2022-11-30T01:25:23.537Z,17.30
2022-11-30T01:26:23.518Z,17.10
2022-11-30T01:27:23.778Z,17.70
2022-11-30T01:28:23.489Z,17.90
2022-11-30T01:29:23.774Z,17.20
2022-11-30T01:30:23.495Z,16.70
2022-11-30T01:31:23.562Z,16.40
2022-11-30T01:32:23.448Z,17.70
2022-11-30T01:33:23.754Z,16.80
2022-11-30T01:34:23.422Z,17.30
2022-11-30T01:35:23.454Z,16.30
2022-11-30T01:36:23.453Z,16.50
2022-11-30T01:37:23.430Z,15.90
2022-11-30T01:38:23.589Z,15.50
2022-11-30T01:39:23.426Z,16.60
2022-11-30T01:40:23.350Z,16.20
2022-11-30T01:41:23.667Z,14.80
2022-11-30T01:42:23.357Z,15.40
2022-11-30T01:43:23.358Z,15.30
2022-11-30T01:44:23.347Z,15.10
2022-11-30T01:45:23.304Z,16.00
2022-11-30T01:46:23.362Z,16.40
2022-11-30T01:47:23.564Z,15.20
2022-11-30T01:48:23.298Z,14.90
2022-11-30T01:49:23.288Z,15.40
2022-11-30T01:50:23.253Z,15.20
2022-11-30T01:51:23.259Z,15.60
2022-11-30T01:52:23.568Z,14.70
2022-11-30T01:53:23.239Z,15.00
2022-11-30T01:54:23.203Z,14.50
2022-11-30T01:55:23.398Z,13.90
2022-11-30T01:56:23.176Z,13.80
2022-11-30T01:57:23.469Z,13.30
2022-11-30T01:58:23.188Z,13.90
2022-11-30T01:59:23.131Z,15.20
2022-11-30T02:00:23.134Z,14.10
2022-11-30T02:01:23.223Z,13.90
2022-11-30T02:02:23.139Z,14.50
2022-11-30T02:03:23.435Z,13.50
2022-11-30T02:04:23.094Z,13.40
2022-11-30T02:05:23.091Z,13.80
2022-11-30T02:06:23.091Z,13.90
2022-11-30T02:07:23.220Z,13.60
2022-11-30T02:08:23.150Z,13.10
2022-11-30T02:09:23.037Z,13.70
2022-11-30T02:10:23.043Z,12.80
2022-11-30T02:11:23.023Z,13.90
2022-11-30T02:12:23.022Z,13.70
2022-11-30T02:13:22.994Z,13.70
2022-11-30T02:14:22.966Z,13.00
2022-11-30T02:15:22.974Z,12.90
2022-11-30T02:16:22.989Z,12.90
2022-11-30T02:17:22.952Z,13.50
2022-11-30T02:18:22.943Z,12.30
2022-11-30T02:19:22.931Z,12.50
2022-11-30T02:20:22.897Z,13.00
2022-11-30T02:21:23.197Z,12.80
2022-11-30T02:22:22.878Z,12.10
2022-11-30T02:23:22.855Z,12.40
2022-11-30T02:24:22.879Z,12.50
2022-11-30T02:25:22.865Z,13.20
2022-11-30T02:26:23.104Z,13.40
2022-11-30T02:27:22.810Z,12.50
2022-11-30T02:28:22.789Z,12.30
2022-11-30T02:29:22.825Z,12.00
2022-11-30T02:30:22.790Z,11.70
2022-11-30T02:31:23.141Z,12.50
2022-11-30T02:32:22.777Z,12.10
2022-11-30T02:33:22.776Z,12.40
2022-11-30T02:34:22.720Z,11.80
2022-11-30T02:35:22.762Z,11.80
2022-11-30T02:36:22.708Z,12.50
2022-11-30T02:37:22.936Z,11.90
2022-11-30T02:38:26.140Z,11.80
2022-11-30T02:39:22.716Z,10.90
2022-11-30T02:40:22.663Z,10.70
2022-11-30T02:41:22.685Z,10.90
2022-11-30T02:42:22.942Z,10.70
2022-11-30T02:43:22.660Z,10.30
2022-11-30T02:44:22.629Z,10.50
2022-11-30T02:45:22.637Z,10.40
2022-11-30T02:46:22.658Z,10.90
2022-11-30T02:47:22.585Z,9.60
2022-11-30T02:48:22.799Z,9.70
2022-11-30T02:49:22.566Z,10.00
2022-11-30T02:50:22.535Z,9.90
2022-11-30T02:51:22.542Z,9.60
2022-11-30T02:52:22.746Z,10.40
2022-11-30T02:53:22.514Z,9.20
2022-11-30T02:54:22.832Z,10.10
2022-11-30T02:55:22.521Z,9.80
2022-11-30T02:56:22.705Z,9.70
2022-11-30T02:57:22.801Z,10.70
2022-11-30T02:58:22.799Z,10.40
2022-11-30T02:59:22.471Z,9.00
2022-11-30T03:00:22.452Z,10.00
2022-11-30T03:01:22.462Z,10.40
2022-11-30T03:02:22.470Z,9.50
2022-11-30T03:03:22.406Z,10.40
2022-11-30T03:04:22.722Z,9.80
2022-11-30T03:05:22.375Z,9.60
2022-11-30T03:06:22.347Z,10.40
2022-11-30T03:07:22.451Z,10.60
2022-11-30T03:08:22.330Z,9.90
2022-11-30T03:09:22.376Z,10.40
2022-11-30T03:10:22.337Z,10.00
2022-11-30T03:11:22.307Z,10.60
2022-11-30T03:12:22.286Z,10.20
2022-11-30T03:13:22.317Z,9.90
2022-11-30T03:14:22.595Z,10.40
2022-11-30T03:15:22.271Z,10.20
2022-11-30T03:16:22.314Z,10.60
2022-11-30T03:17:22.238Z,10.70
2022-11-30T03:18:22.241Z,10.70
2022-11-30T03:19:22.211Z,11.10
2022-11-30T03:20:22.510Z,11.00
2022-11-30T03:21:22.223Z,10.50
2022-11-30T03:22:22.171Z,11.10
2022-11-30T03:23:22.273Z,11.90
2022-11-30T03:24:22.148Z,11.30
2022-11-30T03:25:22.174Z,11.70
2022-11-30T03:26:22.420Z,12.20
2022-11-30T03:27:22.121Z,12.60
2022-11-30T03:28:22.101Z,12.70
2022-11-30T03:29:22.098Z,13.20
2022-11-30T03:30:22.074Z,13.50
2022-11-30T03:31:22.131Z,13.80
2022-11-30T03:32:22.271Z,13.90
2022-11-30T03:33:22.051Z,13.80
2022-11-30T03:34:22.032Z,14.20
2022-11-30T03:35:22.377Z,13.50
2022-11-30T03:36:22.013Z,13.80
2022-11-30T03:37:22.038Z,13.40
2022-11-30T03:38:21.983Z,14.40
2022-11-30T03:39:21.986Z,14.70
2022-11-30T03:40:21.991Z,13.60
2022-11-30T03:41:22.010Z,14.40
2022-11-30T03:42:21.946Z,15.00
2022-11-30T03:43:21.960Z,14.80
2022-11-30T03:44:21.959Z,14.70
2022-11-30T03:45:21.914Z,14.00
2022-11-30T03:46:21.956Z,15.00
2022-11-30T03:47:21.894Z,14.40
2022-11-30T03:48:21.892Z,14.60
2022-11-30T03:49:21.865Z,14.20
2022-11-30T03:50:22.144Z,14.30
2022-11-30T03:51:21.846Z,14.10
2022-11-30T03:52:22.137Z,13.70
2022-11-30T03:53:21.861Z,14.50
2022-11-30T03:54:21.826Z,14.50
2022-11-30T03:55:21.804Z,15.10
2022-11-30T03:56:21.775Z,14.70
2022-11-30T03:57:21.775Z,14.00
2022-11-30T03:58:22.083Z,14.40
2022-11-30T03:59:21.758Z,14.40
2022-11-30T04:00:21.753Z,14.70
2022-11-30T04:01:21.778Z,14.80
2022-11-30T04:02:21.751Z,14.70
2022-11-30T04:03:21.748Z,14.80
2022-11-30T04:04:21.714Z,16.00
2022-11-30T04:05:21.999Z,14.90
2022-11-30T04:06:21.691Z,14.80
2022-11-30T04:07:21.664Z,14.60
2022-11-30T04:08:21.656Z,15.10
2022-11-30T04:09:21.638Z,14.10
2022-11-30T04:10:21.608Z,15.10
2022-11-30T04:11:21.915Z,14.50
2022-11-30T04:12:21.917Z,15.20
2022-11-30T04:13:21.616Z,14.80
2022-11-30T04:14:21.573Z,14.80
2022-11-30T04:15:21.568Z,15.40
2022-11-30T04:16:21.666Z,15.60
2022-11-30T04:17:21.541Z,15.60
2022-11-30T04:18:21.857Z,16.00
2022-11-30T04:19:21.829Z,15.40
2022-11-30T04:20:21.524Z,15.70
2022-11-30T04:21:21.501Z,16.40
2022-11-30T04:22:21.470Z,16.40
2022-11-30T04:23:21.497Z,16.40
2022-11-30T04:24:21.461Z,15.50
2022-11-30T04:25:21.470Z,16.10
2022-11-30T04:26:21.431Z,15.20
2022-11-30T04:27:21.457Z,15.10
2022-11-30T04:28:21.429Z,14.90
2022-11-30T04:29:21.438Z,15.30
2022-11-30T04:30:21.373Z,15.60
2022-11-30T04:31:21.754Z,15.70
2022-11-30T04:32:21.352Z,15.60
2022-11-30T04:33:21.390Z,15.60
2022-11-30T04:34:21.332Z,15.60
2022-11-30T04:35:21.333Z,15.60
2022-11-30T04:36:21.622Z,14.80
2022-11-30T04:37:21.312Z,14.80
2022-11-30T04:38:21.283Z,15.40
2022-11-30T04:39:21.310Z,15.40
2022-11-30T04:40:21.291Z,14.20
2022-11-30T04:41:21.290Z,14.90
2022-11-30T04:42:21.257Z,14.60
2022-11-30T04:43:21.281Z,14.40
2022-11-30T04:44:21.240Z,14.60
2022-11-30T04:45:21.242Z,14.10
2022-11-30T04:46:21.285Z,13.70
2022-11-30T04:47:21.501Z,14.20
2022-11-30T04:48:21.192Z,14.10
2022-11-30T04:49:21.167Z,14.50
2022-11-30T04:50:21.148Z,13.70
2022-11-30T04:51:21.465Z,14.00
2022-11-30T04:52:21.117Z,13.40
2022-11-30T04:53:21.124Z,14.50
2022-11-30T04:54:21.099Z,13.50
2022-11-30T04:55:21.104Z,13.60
2022-11-30T04:56:21.307Z,13.10
2022-11-30T04:57:21.076Z,13.40
2022-11-30T04:58:21.083Z,13.50
2022-11-30T04:59:21.073Z,13.50
2022-11-30T05:00:21.054Z,13.50
2022-11-30T05:01:21.319Z,13.20
2022-11-30T05:02:21.034Z,13.20
2022-11-30T05:03:21.013Z,13.60
2022-11-30T05:04:21.049Z,12.80
2022-11-30T05:05:20.986Z,12.80
2022-11-30T05:06:21.229Z,12.20
2022-11-30T05:07:21.023Z,12.80
2022-11-30T05:08:20.964Z,13.00
2022-11-30T05:09:20.965Z,12.70
2022-11-30T05:10:20.910Z,12.20
2022-11-30T05:11:21.151Z,12.60
2022-11-30T05:12:20.925Z,12.60
2022-11-30T05:13:20.916Z,12.10
2022-11-30T05:14:20.862Z,12.40
2022-11-30T05:15:20.883Z,12.10
2022-11-30T05:16:21.142Z,11.90
2022-11-30T05:17:20.860Z,12.20
2022-11-30T05:18:20.877Z,11.80
2022-11-30T05:19:20.856Z,12.00
2022-11-30T05:20:20.840Z,12.20
2022-11-30T05:21:20.827Z,12.50
2022-11-30T05:22:21.101Z,12.60
2022-11-30T05:23:20.806Z,12.10
2022-11-30T05:24:20.786Z,12.00
2022-11-30T05:25:20.779Z,11.60
2022-11-30T05:26:20.732Z,12.90
2022-11-30T05:27:22.700Z,12.60
2022-11-30T05:28:21.031Z,12.30
2022-11-30T05:29:21.058Z,12.00
2022-11-30T05:30:20.681Z,12.60
2022-11-30T05:31:20.701Z,12.50
2022-11-30T05:32:20.662Z,12.60
2022-11-30T05:33:20.688Z,12.60
2022-11-30T05:34:20.666Z,12.40
2022-11-30T05:35:20.933Z,12.50
2022-11-30T05:36:20.932Z,12.40
2022-11-30T05:37:20.612Z,12.00
2022-11-30T05:38:20.585Z,12.30
2022-11-30T05:39:20.587Z,12.50
2022-11-30T05:40:20.589Z,12.40
2022-11-30T05:41:20.564Z,12.90
2022-11-30T05:42:20.813Z,12.10
2022-11-30T05:43:20.880Z,13.00
2022-11-30T05:44:20.549Z,12.90
2022-11-30T05:45:20.519Z,13.10
2022-11-30T05:46:20.536Z,12.90
2022-11-30T05:47:20.522Z,12.40
2022-11-30T05:48:20.475Z,12.10
2022-11-30T05:49:20.485Z,12.10
2022-11-30T05:50:20.735Z,12.40
2022-11-30T05:51:20.455Z,11.90
2022-11-30T05:52:20.453Z,11.90
2022-11-30T05:53:20.453Z,12.30
2022-11-30T05:54:20.405Z,11.90
2022-11-30T05:55:20.397Z,12.30
2022-11-30T05:56:20.624Z,12.40
2022-11-30T05:57:20.404Z,12.80
2022-11-30T05:58:20.383Z,13.10
2022-11-30T05:59:20.383Z,12.70
2022-11-30T06:00:20.334Z,12.30
2022-11-30T06:01:20.354Z,12.00
2022-11-30T06:02:26.592Z,12.90
2022-11-30T06:03:21.434Z,13.30
2022-11-30T06:04:20.316Z,12.70
2022-11-30T06:05:20.592Z,12.30
2022-11-30T06:06:20.285Z,13.00
2022-11-30T06:07:20.308Z,13.00
2022-11-30T06:08:20.238Z,13.40
2022-11-30T06:09:20.295Z,13.00
2022-11-30T06:10:20.219Z,12.60
2022-11-30T06:11:20.519Z,12.40
2022-11-30T06:12:20.215Z,12.60
2022-11-30T06:13:23.538Z,12.70
2022-11-30T06:14:21.197Z,13.00
2022-11-30T06:15:20.197Z,13.00
2022-11-30T06:16:20.250Z,13.20
2022-11-30T06:17:20.360Z,13.30
2022-11-30T06:18:20.139Z,12.50
2022-11-30T06:19:20.147Z,12.90
2022-11-30T06:20:20.130Z,12.20
2022-11-30T06:21:24.418Z,13.30
2022-11-30T06:22:20.073Z,12.90
2022-11-30T06:23:20.396Z,13.40
2022-11-30T06:24:20.091Z,13.50
2022-11-30T06:25:20.088Z,13.30
2022-11-30T06:26:20.044Z,12.70
2022-11-30T06:27:20.032Z,12.60
2022-11-30T06:28:20.012Z,12.30
2022-11-30T06:29:20.312Z,12.20
2022-11-30T06:30:19.982Z,12.80
2022-11-30T06:31:20.101Z,12.90
2022-11-30T06:32:19.963Z,12.40
2022-11-30T06:33:20.308Z,12.90
2022-11-30T06:34:19.969Z,12.80
2022-11-30T06:35:19.941Z,12.90
2022-11-30T06:36:19.943Z,12.60
2022-11-30T06:37:19.913Z,12.50
2022-11-30T06:38:20.140Z,13.10
2022-11-30T06:39:36.535Z,12.60
2022-11-30T06:40:20.891Z,11.60
2022-11-30T06:41:19.895Z,12.40
2022-11-30T06:42:19.846Z,13.00
2022-11-30T06:43:19.854Z,12.30
2022-11-30T06:44:20.045Z,13.00
2022-11-30T06:45:19.813Z,12.60
2022-11-30T06:46:19.871Z,12.70
2022-11-30T06:47:19.785Z,13.20
2022-11-30T06:48:19.822Z,12.50
2022-11-30T06:49:19.793Z,12.70
2022-11-30T06:50:19.814Z,13.10
2022-11-30T06:51:19.763Z,13.60
2022-11-30T06:52:19.779Z,12.80
2022-11-30T06:53:19.744Z,11.70
2022-11-30T06:54:19.945Z,12.60
2022-11-30T06:55:19.723Z,12.60
2022-11-30T06:56:19.938Z,12.90
2022-11-30T06:57:19.668Z,12.60
2022-11-30T06:58:19.669Z,12.80
2022-11-30T06:59:34.346Z,13.00
2022-11-30T07:00:19.675Z,13.30
2022-11-30T07:01:19.732Z,13.90
2022-11-30T07:02:19.857Z,12.90
2022-11-30T07:03:19.609Z,13.80
2022-11-30T07:04:19.638Z,13.60
2022-11-30T07:05:19.617Z,13.20
2022-11-30T07:06:19.617Z,12.90
2022-11-30T07:07:19.621Z,13.00
2022-11-30T07:08:19.576Z,12.80
2022-11-30T07:09:19.529Z,12.80
2022-11-30T07:10:20.385Z,12.80
2022-11-30T07:11:19.738Z,13.30
2022-11-30T07:12:19.508Z,13.10
2022-11-30T07:13:19.491Z,12.40
2022-11-30T07:14:19.515Z,12.60
2022-11-30T07:15:19.700Z,11.80
2022-11-30T07:16:19.507Z,13.00
2022-11-30T07:17:19.467Z,12.00
2022-11-30T07:18:19.477Z,12.30
2022-11-30T07:19:19.758Z,12.30
2022-11-30T07:20:19.439Z,12.00
2022-11-30T07:21:19.392Z,12.60
2022-11-30T07:22:19.392Z,12.20
2022-11-30T07:23:19.399Z,12.20
2022-11-30T07:24:19.658Z,12.60
2022-11-30T07:25:19.343Z,12.80
2022-11-30T07:26:19.352Z,12.40
2022-11-30T07:27:19.323Z,12.10
2022-11-30T07:28:19.333Z,12.80
2022-11-30T07:29:19.340Z,12.00
2022-11-30T07:30:19.631Z,12.00
2022-11-30T07:31:19.389Z,12.60
2022-11-30T07:32:19.315Z,12.10
2022-11-30T07:33:19.292Z,12.60
2022-11-30T07:34:19.257Z,12.60
2022-11-30T07:35:19.231Z,11.70
2022-11-30T07:36:19.270Z,12.80
2022-11-30T07:37:19.254Z,12.50
2022-11-30T07:38:19.223Z,12.10
2022-11-30T07:39:19.186Z,12.20
2022-11-30T07:40:19.194Z,11.90
2022-11-30T07:41:19.184Z,12.70
2022-11-30T07:42:19.206Z,12.20
2022-11-30T07:43:19.181Z,12.30
2022-11-30T07:44:19.175Z,11.90
2022-11-30T07:45:19.117Z,12.50
2022-11-30T07:46:19.263Z,12.40
2022-11-30T07:47:19.116Z,12.40
2022-11-30T07:48:19.113Z,12.50
2022-11-30T07:49:19.102Z,12.90
2022-11-30T07:50:19.069Z,12.80
2022-11-30T07:51:19.076Z,12.90
2022-11-30T07:52:19.071Z,12.30
2022-11-30T07:53:19.074Z,12.90
2022-11-30T07:54:19.352Z,12.80
2022-11-30T07:55:19.024Z,12.60
2022-11-30T07:56:19.033Z,13.10
2022-11-30T07:57:26.000Z,13.00
2022-11-30T07:58:18.972Z,13.30
2022-11-30T07:59:18.950Z,12.80
2022-11-30T08:00:18.976Z,13.00
2022-11-30T08:01:19.080Z,13.20
2022-11-30T08:02:19.030Z,12.90
2022-11-30T08:03:19.237Z,12.80
2022-11-30T08:04:18.964Z,13.00
2022-11-30T08:05:18.885Z,13.20
2022-11-30T08:06:18.880Z,13.80
2022-11-30T08:07:18.962Z,13.10
2022-11-30T08:08:18.888Z,13.70
2022-11-30T08:09:20.874Z,13.30
2022-11-30T08:10:19.059Z,13.50
2022-11-30T08:11:18.839Z,13.20
2022-11-30T08:12:18.814Z,12.80
2022-11-30T08:13:18.808Z,14.00
2022-11-30T08:14:18.810Z,13.00
2022-11-30T08:15:20.629Z,13.10
2022-11-30T08:16:18.847Z,13.30
2022-11-30T08:17:18.789Z,13.00
2022-11-30T08:18:18.781Z,12.70
2022-11-30T08:19:18.724Z,14.00
2022-11-30T08:20:18.722Z,13.40
2022-11-30T08:21:18.721Z,13.10
2022-11-30T08:22:18.721Z,13.10
2022-11-30T08:23:18.895Z,13.20
2022-11-30T08:24:18.973Z,13.50
2022-11-30T08:25:18.679Z,13.40
2022-11-30T08:26:18.645Z,13.30
2022-11-30T08:27:18.657Z,13.70
2022-11-30T08:28:18.651Z,13.60
2022-11-30T08:29:18.633Z,12.90
2022-11-30T08:30:18.838Z,12.80
2022-11-30T08:31:18.668Z,13.00
2022-11-30T08:32:18.605Z,13.70
2022-11-30T08:33:18.584Z,13.60
2022-11-30T08:34:18.566Z,13.30
2022-11-30T08:35:18.534Z,12.70
2022-11-30T08:36:18.554Z,13.40
2022-11-30T08:37:18.533Z,13.30
2022-11-30T08:38:18.533Z,13.60
2022-11-30T08:39:18.834Z,12.80
2022-11-30T08:40:18.514Z,13.40
2022-11-30T08:41:18.457Z,13.00
2022-11-30T08:42:18.669Z,13.00
2022-11-30T08:43:18.793Z,13.20
2022-11-30T08:44:18.464Z,12.80
2022-11-30T08:45:18.444Z,13.10
2022-11-30T08:47:19.520Z,13.00
2022-11-30T08:49:12.598Z,13.10
2022-11-30T08:50:19.386Z,13.70
2022-11-30T08:51:18.387Z,13.80
2022-11-30T08:52:18.971Z,13.10
2022-11-30T08:53:18.329Z,13.20
2022-11-30T08:54:18.599Z,13.40
2022-11-30T08:55:18.310Z,13.20
2022-11-30T08:56:18.316Z,13.20
2022-11-30T08:57:18.290Z,13.30
2022-11-30T08:58:18.288Z,13.70
2022-11-30T08:59:18.270Z,13.00
2022-11-30T09:00:18.495Z,13.00
2022-11-30T09:01:18.267Z,13.60
2022-11-30T09:02:18.650Z,13.70
2022-11-30T09:03:18.249Z,14.20
2022-11-30T09:04:18.226Z,13.90
2022-11-30T09:05:18.220Z,13.30
2022-11-30T09:06:18.612Z,13.50
2022-11-30T09:07:18.358Z,13.30
2022-11-30T09:08:18.179Z,13.90
2022-11-30T09:09:18.177Z,13.00
2022-11-30T09:10:18.149Z,13.90
2022-11-30T09:11:18.123Z,14.20
2022-11-30T09:12:18.416Z,13.60
2022-11-30T09:13:18.128Z,14.00
2022-11-30T09:14:18.074Z,13.20
2022-11-30T09:15:18.108Z,13.50
2022-11-30T09:16:18.093Z,13.60
2022-11-30T09:17:18.083Z,13.20
2022-11-30T09:18:18.319Z,13.30
2022-11-30T09:19:18.035Z,13.30
2022-11-30T09:20:18.015Z,13.80
2022-11-30T09:21:18.049Z,13.60
2022-11-30T09:22:18.012Z,13.90
2022-11-30T09:23:17.984Z,13.90
2022-11-30T09:24:18.173Z,14.20
2022-11-30T09:25:17.962Z,13.70
2022-11-30T09:26:17.963Z,13.70
2022-11-30T09:27:17.955Z,13.50
2022-11-30T09:28:17.941Z,14.10
2022-11-30T09:29:17.943Z,13.60
2022-11-30T09:30:18.280Z,14.00
2022-11-30T09:31:17.973Z,14.10
2022-11-30T09:32:17.866Z,13.30
2022-11-30T09:33:17.892Z,13.50
2022-11-30T09:34:17.845Z,13.00
2022-11-30T09:35:18.215Z,13.60
2022-11-30T09:36:17.817Z,13.40
2022-11-30T09:37:17.838Z,13.20
2022-11-30T09:38:17.823Z,13.60
2022-11-30T09:39:17.799Z,13.00
2022-11-30T09:40:17.789Z,13.40
2022-11-30T09:41:17.804Z,12.80
2022-11-30T09:42:17.985Z,13.70
2022-11-30T09:43:17.749Z,13.40
2022-11-30T09:44:17.728Z,13.60
2022-11-30T09:45:17.756Z,13.70
2022-11-30T09:46:17.751Z,13.80
2022-11-30T09:47:17.748Z,13.30
2022-11-30T09:48:17.680Z,13.70
2022-11-30T09:49:17.680Z,13.50
2022-11-30T09:50:17.649Z,13.60
2022-11-30T09:51:17.660Z,13.20
2022-11-30T09:52:17.676Z,13.60
2022-11-30T09:53:17.642Z,13.50
2022-11-30T09:54:17.921Z,13.60
2022-11-30T09:55:17.615Z,13.40
2022-11-30T09:56:17.585Z,13.40
2022-11-30T09:57:17.602Z,13.40
2022-11-30T09:58:17.589Z,13.30
2022-11-30T09:59:17.599Z,13.50
2022-11-30T10:00:18.011Z,13.70
2022-11-30T10:01:17.636Z,13.50
2022-11-30T10:02:17.616Z,13.60
2022-11-30T10:03:17.566Z,13.50
2022-11-30T10:04:17.520Z,14.40
2022-11-30T10:05:17.702Z,13.50
2022-11-30T10:06:17.498Z,14.40
2022-11-30T10:07:17.563Z,13.90
2022-11-30T10:08:18.216Z,14.30
2022-11-30T10:09:17.452Z,14.20
2022-11-30T10:10:32.117Z,13.80
2022-11-30T10:11:18.432Z,13.30
2022-11-30T10:12:17.401Z,13.70
2022-11-30T10:13:17.604Z,13.40
2022-11-30T10:14:17.411Z,13.60
2022-11-30T10:15:17.422Z,13.20
2022-11-30T10:16:17.402Z,13.30
2022-11-30T10:17:17.388Z,12.90
2022-11-30T10:18:17.335Z,13.50
2022-11-30T10:19:17.355Z,13.50
2022-11-30T10:20:17.381Z,13.60
2022-11-30T10:21:17.334Z,13.80
2022-11-30T10:22:17.486Z,14.40
2022-11-30T10:23:17.985Z,13.30
2022-11-30T10:24:17.256Z,13.40
2022-11-30T10:25:17.297Z,13.90
2022-11-30T10:26:17.239Z,13.40
2022-11-30T10:27:17.247Z,13.80
2022-11-30T10:28:44.806Z,13.90
2022-11-30T10:29:18.452Z,13.70
2022-11-30T10:30:17.188Z,14.00
2022-11-30T10:31:17.347Z,13.80
2022-11-30T10:32:17.175Z,13.60
2022-11-30T10:33:17.194Z,13.30
2022-11-30T10:34:17.406Z,13.60
2022-11-30T10:35:17.149Z,14.00
2022-11-30T10:36:17.145Z,14.10
2022-11-30T10:37:17.130Z,12.90
2022-11-30T10:38:17.133Z,13.20
2022-11-30T10:39:17.125Z,13.30
2022-11-30T10:40:17.416Z,13.50
2022-11-30T10:41:17.079Z,13.50
2022-11-30T10:42:17.077Z,12.90
2022-11-30T10:43:17.060Z,13.20
2022-11-30T10:44:17.056Z,13.40
2022-11-30T10:45:17.057Z,13.40
2022-11-30T10:46:17.495Z,12.70
2022-11-30T10:47:17.011Z,12.90
2022-11-30T10:48:16.983Z,13.50
2022-11-30T10:49:17.019Z,13.70
2022-11-30T10:50:17.160Z,13.00
2022-11-30T10:51:16.987Z,13.20
2022-11-30T10:52:16.959Z,13.40
2022-11-30T10:53:16.947Z,13.90
2022-11-30T10:54:16.921Z,13.90
2022-11-30T10:55:16.959Z,13.50
2022-11-30T10:56:16.930Z,13.50
2022-11-30T10:57:16.899Z,12.80
2022-11-30T10:58:16.883Z,13.20
2022-11-30T10:59:17.074Z,13.30
2022-11-30T11:00:16.853Z,13.10
2022-11-30T11:01:16.870Z,13.50
2022-11-30T11:02:16.870Z,13.40
2022-11-30T11:03:16.839Z,13.80
2022-11-30T11:04:16.905Z,12.60
2022-11-30T11:05:16.793Z,12.40
2022-11-30T11:06:16.811Z,13.10
2022-11-30T11:07:16.828Z,13.30
2022-11-30T11:08:17.152Z,13.40
2022-11-30T11:09:16.967Z,13.70
2022-11-30T11:10:17.019Z,13.20
2022-11-30T11:11:16.745Z,13.50
2022-11-30T11:12:16.714Z,13.30
2022-11-30T11:13:16.686Z,13.10
2022-11-30T11:14:16.712Z,12.70
2022-11-30T11:15:16.874Z,12.20
2022-11-30T11:16:16.732Z,12.70
2022-11-30T11:17:16.637Z,12.30
2022-11-30T11:18:16.653Z,12.30
2022-11-30T11:19:16.616Z,12.40
2022-11-30T11:20:16.651Z,12.40
2022-11-30T11:21:16.905Z,11.50
2022-11-30T11:22:16.625Z,12.00
2022-11-30T11:23:16.596Z,11.20
2022-11-30T11:24:16.604Z,11.70
2022-11-30T11:25:17.825Z,12.10
2022-11-30T11:26:16.612Z,11.90
2022-11-30T11:27:16.554Z,11.60
2022-11-30T11:28:16.553Z,12.10
2022-11-30T11:29:16.508Z,12.00
2022-11-30T11:30:16.507Z,11.60
2022-11-30T11:31:16.797Z,11.70
2022-11-30T11:32:16.519Z,12.50
2022-11-30T11:33:16.485Z,12.40
2022-11-30T11:34:16.457Z,11.60
2022-11-30T11:35:16.428Z,11.50
2022-11-30T11:36:16.464Z,11.40
2022-11-30T11:37:16.545Z,11.20
2022-11-30T11:38:16.438Z,10.90
2022-11-30T11:39:16.379Z,11.00
2022-11-30T11:40:16.383Z,11.00
2022-11-30T11:41:16.359Z,11.60
2022-11-30T11:42:19.132Z,10.80
2022-11-30T11:43:17.667Z,10.00
2022-11-30T11:44:16.358Z,10.50
2022-11-30T11:45:16.311Z,10.80
2022-11-30T11:46:16.363Z,10.10
2022-11-30T11:47:16.291Z,10.40
2022-11-30T11:48:16.559Z,10.50
2022-11-30T11:49:16.262Z,10.70
2022-11-30T11:50:16.271Z,10.40
2022-11-30T11:51:16.268Z,10.30
2022-11-30T11:52:16.242Z,9.90
2022-11-30T11:53:16.593Z,10.30
2022-11-30T11:54:16.302Z,9.60
2022-11-30T11:55:16.202Z,10.30
2022-11-30T11:56:16.230Z,9.50
2022-11-30T11:57:16.172Z,10.00
2022-11-30T11:58:16.172Z,9.70
2022-11-30T11:59:16.390Z,9.70
2022-11-30T12:00:16.762Z,9.30
2022-11-30T12:01:39.413Z,10.20
2022-11-30T12:02:17.207Z,9.60
2022-11-30T12:03:16.127Z,9.80
2022-11-30T12:04:16.148Z,9.50
2022-11-30T12:05:16.102Z,10.50
2022-11-30T12:06:16.319Z,10.90
2022-11-30T12:07:18.142Z,11.30
2022-11-30T12:08:16.082Z,10.40
2022-11-30T12:09:16.369Z,10.10
2022-11-30T12:10:43.682Z,9.80
2022-11-30T12:11:17.354Z,10.30
2022-11-30T12:12:16.031Z,9.60
2022-11-30T12:13:16.015Z,10.10
2022-11-30T12:14:15.986Z,10.40
2022-11-30T12:15:15.992Z,10.70
2022-11-30T12:16:16.041Z,10.30
2022-11-30T12:17:16.032Z,10.30
2022-11-30T12:18:23.613Z,10.40
2022-11-30T12:19:16.943Z,10.40
2022-11-30T12:20:15.917Z,10.60
2022-11-30T12:21:15.905Z,10.70
2022-11-30T12:22:15.923Z,10.10
2022-11-30T12:23:16.188Z,10.70
2022-11-30T12:24:15.914Z,11.10
2022-11-30T12:25:15.847Z,10.20
2022-11-30T12:26:15.874Z,11.10
2022-11-30T12:27:15.819Z,10.50
2022-11-30T12:28:15.832Z,10.80
2022-11-30T12:29:16.078Z,10.60
2022-11-30T12:30:15.825Z,10.20
2022-11-30T12:31:15.810Z,10.50
2022-11-30T12:32:15.778Z,11.10
2022-11-30T12:33:15.770Z,11.00
2022-11-30T12:34:15.756Z,10.50
2022-11-30T12:35:15.750Z,10.60
2022-11-30T12:36:15.758Z,10.50
2022-11-30T12:37:15.737Z,9.70
2022-11-30T12:39:26.731Z,9.40
2022-11-30T12:40:26.696Z,9.80
2022-11-30T12:41:26.713Z,10.30
2022-11-30T12:42:26.654Z,10.60
2022-11-30T12:43:26.681Z,10.20
2022-11-30T12:44:26.650Z,10.80
2022-11-30T12:45:26.970Z,10.60
2022-11-30T12:46:26.674Z,11.30
2022-11-30T12:47:26.639Z,10.90
2022-11-30T12:48:26.611Z,10.40
2022-11-30T12:49:26.629Z,10.40
2022-11-30T12:50:26.604Z,10.20
2022-11-30T12:51:29.942Z,9.80
2022-11-30T12:52:26.564Z,9.80
2022-11-30T12:53:26.565Z,9.70
2022-11-30T12:54:26.828Z,9.90
2022-11-30T12:55:26.526Z,9.70
2022-11-30T12:56:26.486Z,10.10